createdAt,value
2023-02-06T00:01:26.767Z,98268.00
2023-02-06T00:03:54.887Z,98281.25
2023-02-06T00:06:22.871Z,98271.25
2023-02-06T00:08:50.740Z,98263.41
2023-02-06T00:11:21.260Z,98268.84
2023-02-06T00:13:49.578Z,98275.97
2023-02-06T00:16:18.684Z,98282.69
2023-02-06T00:18:46.747Z,98281.78
2023-02-06T00:21:20.230Z,98272.25
2023-02-06T00:23:48.440Z,98273.34
2023-02-06T00:26:16.319Z,98284.72
2023-02-06T00:28:45.791Z,98276.09
2023-02-06T00:31:13.848Z,98277.22
2023-02-06T00:33:43.903Z,98280.91
2023-02-06T00:36:13.484Z,98286.44
2023-02-06T00:38:41.511Z,98288.81
2023-02-06T00:41:09.492Z,98288.63
2023-02-06T00:43:38.345Z,98298.38
2023-02-06T00:46:07.736Z,98300.53
2023-02-06T00:48:35.634Z,98297.13
2023-02-06T00:51:03.549Z,98299.47
2023-02-06T00:53:31.449Z,98300.94
2023-02-06T00:55:59.379Z,98302.38
2023-02-06T00:58:27.275Z,98308.88
2023-02-06T01:00:55.464Z,98312.66
2023-02-06T01:03:24.761Z,98319.91
2023-02-06T01:05:52.665Z,98321.00
2023-02-06T01:08:20.596Z,98316.03
2023-02-06T01:10:48.502Z,98313.25
2023-02-06T01:13:18.825Z,98317.34
2023-02-06T01:15:46.898Z,98311.00
2023-02-06T01:18:14.856Z,98310.97
2023-02-06T01:20:44.127Z,98305.09
2023-02-06T01:23:12.012Z,98296.38
2023-02-06T01:25:39.945Z,98291.38
2023-02-06T01:28:07.911Z,98287.88
2023-02-06T01:30:44.686Z,98285.94
2023-02-06T01:33:12.599Z,98295.72
2023-02-06T01:35:40.480Z,98297.59
2023-02-06T01:38:09.796Z,98299.09
2023-02-06T01:40:37.747Z,98303.41
2023-02-06T01:43:06.902Z,98302.25
2023-02-06T01:45:48.862Z,98311.16
2023-02-06T01:48:22.518Z,98315.16
2023-02-06T01:50:53.013Z,98318.09
2023-02-06T01:53:23.941Z,98316.06
2023-02-06T01:55:52.679Z,98305.44
2023-02-06T01:58:23.541Z,98290.69
2023-02-06T02:00:51.538Z,98291.78
2023-02-06T02:03:19.606Z,98295.53
2023-02-06T02:05:48.328Z,98288.91
2023-02-06T02:08:19.692Z,98296.31
2023-02-06T02:10:49.119Z,98294.31
2023-02-06T02:13:17.203Z,98286.84
2023-02-06T02:15:51.527Z,98293.06
2023-02-06T02:18:37.014Z,98282.13
2023-02-06T02:21:47.877Z,98283.50
2023-02-06T02:24:23.309Z,98278.75
2023-02-06T02:27:10.938Z,98265.34
2023-02-06T02:30:13.967Z,98263.41
2023-02-06T02:33:22.897Z,98278.41
2023-02-06T02:35:55.130Z,98260.38
2023-02-06T02:38:39.702Z,98265.81
2023-02-06T02:41:16.580Z,98266.25
2023-02-06T02:43:45.947Z,98266.47
2023-02-06T02:46:23.728Z,98269.66
2023-02-06T02:48:54.100Z,98278.44
2023-02-06T02:51:24.211Z,98276.81
2023-02-06T02:53:52.089Z,98260.28
2023-02-06T02:56:22.412Z,98262.75
2023-02-06T02:58:52.439Z,98269.66
2023-02-06T03:01:22.602Z,98247.47
2023-02-06T03:03:55.399Z,98248.22
2023-02-06T03:06:36.461Z,98259.25
2023-02-06T03:09:07.219Z,98262.84
2023-02-06T03:11:42.896Z,98265.56
2023-02-06T03:14:16.015Z,98267.47
2023-02-06T03:16:47.156Z,98268.50
2023-02-06T03:19:16.753Z,98262.25
2023-02-06T03:21:46.672Z,98265.69
2023-02-06T03:24:16.928Z,98279.16
2023-02-06T03:26:45.382Z,98275.78
2023-02-06T03:29:14.354Z,98276.72
2023-02-06T03:31:46.974Z,98283.88
2023-02-06T03:34:19.279Z,98275.78
2023-02-06T03:36:49.088Z,98286.50
2023-02-06T03:39:16.995Z,98285.94
2023-02-06T03:41:45.610Z,98290.31
2023-02-06T03:44:16.824Z,98294.19
2023-02-06T03:46:45.428Z,98295.63
2023-02-06T03:49:14.897Z,98296.81
2023-02-06T03:51:45.152Z,98291.28
2023-02-06T03:54:15.544Z,98286.63
2023-02-06T03:56:47.327Z,98285.41
2023-02-06T03:59:15.682Z,98285.28
2023-02-06T04:01:46.508Z,98279.28
2023-02-06T04:04:15.714Z,98285.16
2023-02-06T04:06:43.807Z,98288.41
2023-02-06T04:09:11.962Z,98289.69
2023-02-06T04:11:41.364Z,98284.31
2023-02-06T04:14:09.271Z,98285.75
2023-02-06T04:16:37.240Z,98278.25
2023-02-06T04:19:05.185Z,98291.22
2023-02-06T04:21:33.076Z,98282.59
2023-02-06T04:24:00.944Z,98272.25
2023-02-06T04:26:28.867Z,98273.53
2023-02-06T04:28:58.140Z,98265.25
2023-02-06T04:31:26.101Z,98269.50
2023-02-06T04:33:54.044Z,98268.94
2023-02-06T04:36:22.028Z,98265.59
2023-02-06T04:38:49.907Z,98259.47
2023-02-06T04:41:18.015Z,98259.47
2023-02-06T04:43:46.014Z,98258.69
2023-02-06T04:46:15.294Z,98259.03
2023-02-06T04:48:43.359Z,98243.50
2023-02-06T04:51:11.280Z,98244.22
2023-02-06T04:53:39.217Z,98240.22
2023-02-06T04:56:08.552Z,98239.72
2023-02-06T04:58:36.662Z,98239.66
2023-02-06T05:01:04.884Z,98240.00
2023-02-06T05:03:34.464Z,98231.41
2023-02-06T05:06:03.439Z,98231.94
2023-02-06T05:08:32.015Z,98221.38
2023-02-06T05:10:59.943Z,98223.72
2023-02-06T05:13:27.948Z,98217.47
2023-02-06T05:15:58.051Z,98209.69
2023-02-06T05:18:26.045Z,98212.34
2023-02-06T05:20:55.294Z,98216.13
2023-02-06T05:23:23.194Z,98211.75
2023-02-06T05:25:51.126Z,98211.94
2023-02-06T05:28:19.430Z,98221.66
2023-02-06T05:30:47.753Z,98223.81
2023-02-06T05:33:15.753Z,98226.06
2023-02-06T05:35:43.833Z,98228.22
2023-02-06T05:38:13.124Z,98223.34
2023-02-06T05:40:41.094Z,98224.19
2023-02-06T05:43:09.399Z,98208.75
2023-02-06T05:45:37.756Z,98226.06
2023-02-06T05:48:06.379Z,98223.25
2023-02-06T05:50:34.284Z,98218.63
2023-02-06T05:53:02.208Z,98212.63
2023-02-06T05:55:31.516Z,98223.38
2023-02-06T05:57:59.801Z,98220.38
2023-02-06T06:00:27.723Z,98224.41
2023-02-06T06:02:55.660Z,98219.66
2023-02-06T06:05:23.555Z,98219.72
2023-02-06T06:07:51.580Z,98217.69
2023-02-06T06:10:19.704Z,98218.19
2023-02-06T06:12:48.992Z,98217.97
2023-02-06T06:15:17.263Z,98213.50
2023-02-06T06:17:45.191Z,98225.38
2023-02-06T06:20:13.360Z,98223.09
2023-02-06T06:22:41.271Z,98218.13
2023-02-06T06:25:09.663Z,98214.63
2023-02-06T06:27:37.605Z,98205.00
2023-02-06T06:30:08.142Z,98207.59
2023-02-06T06:32:36.086Z,98218.56
2023-02-06T06:35:03.998Z,98216.09
2023-02-06T06:37:31.897Z,98214.56
2023-02-06T06:39:59.823Z,98214.44
2023-02-06T06:42:27.727Z,98222.41
2023-02-06T06:44:55.597Z,98228.06
2023-02-06T06:47:24.935Z,98221.88
2023-02-06T06:49:52.848Z,98225.13
2023-02-06T06:52:25.407Z,98217.09
2023-02-06T06:54:53.886Z,98222.88
2023-02-06T06:57:22.100Z,98221.88
2023-02-06T06:59:50.081Z,98222.97
2023-02-06T07:02:18.456Z,98218.88
2023-02-06T07:04:47.962Z,98201.50
2023-02-06T07:07:16.108Z,98201.09
2023-02-06T07:09:44.009Z,98203.94
2023-02-06T07:12:12.139Z,98202.13
2023-02-06T07:14:41.278Z,98205.84
2023-02-06T07:17:09.182Z,98207.66
2023-02-06T07:19:37.089Z,98204.97
2023-02-06T07:22:06.710Z,98201.16
2023-02-06T07:24:34.586Z,98208.47
2023-02-06T07:27:02.642Z,98216.47
2023-02-06T07:29:30.540Z,98214.78
2023-02-06T07:32:00.665Z,98209.44
2023-02-06T07:34:28.778Z,98203.72
2023-02-06T07:36:56.694Z,98215.00
2023-02-06T07:39:25.958Z,98210.72
2023-02-06T07:41:53.830Z,98204.47
2023-02-06T07:44:21.781Z,98208.84
2023-02-06T07:46:49.668Z,98205.13
2023-02-06T07:49:17.665Z,98203.38
2023-02-06T07:51:46.638Z,98197.53
2023-02-06T07:54:14.551Z,98200.25
2023-02-06T07:56:44.381Z,98199.03
2023-02-06T07:59:12.517Z,98184.28
2023-02-06T08:01:40.470Z,98186.84
2023-02-06T08:04:08.400Z,98189.25
2023-02-06T08:06:36.330Z,98187.94
2023-02-06T08:09:05.725Z,98193.63
2023-02-06T08:11:33.583Z,98195.66
2023-02-06T08:14:02.875Z,98191.94
2023-02-06T08:16:30.841Z,98182.31
2023-02-06T08:18:58.794Z,98187.44
2023-02-06T08:21:26.899Z,98194.41
2023-02-06T08:23:55.760Z,98196.94
2023-02-06T08:26:24.011Z,98188.97
2023-02-06T08:28:52.850Z,98190.81
2023-02-06T08:31:24.919Z,98190.06
2023-02-06T08:33:53.390Z,98195.16
2023-02-06T08:36:22.211Z,98192.06
2023-02-06T08:38:50.146Z,98197.66
2023-02-06T08:41:19.876Z,98198.69
2023-02-06T08:43:48.530Z,98205.84
2023-02-06T08:46:17.827Z,98197.66
2023-02-06T08:48:47.834Z,98201.41
2023-02-06T08:51:16.376Z,98204.06
2023-02-06T08:53:44.257Z,98196.69
2023-02-06T08:56:13.538Z,98194.94
2023-02-06T08:58:41.633Z,98199.28
2023-02-06T09:01:10.037Z,98194.88
2023-02-06T09:03:38.054Z,98200.84
2023-02-06T09:06:10.321Z,98202.41
2023-02-06T09:08:38.880Z,98201.28
2023-02-06T09:11:07.888Z,98210.19
2023-02-06T09:13:35.887Z,98215.03
2023-02-06T09:16:06.772Z,98210.13
2023-02-06T09:18:35.215Z,98205.09
2023-02-06T09:21:11.118Z,98202.69
2023-02-06T09:23:39.631Z,98197.97
2023-02-06T09:26:07.558Z,98195.19
2023-02-06T09:28:35.542Z,98192.81
2023-02-06T09:31:03.679Z,98191.13
2023-02-06T09:33:31.657Z,98200.00
2023-02-06T09:36:03.611Z,98192.50
2023-02-06T09:38:32.928Z,98198.19
2023-02-06T09:41:01.945Z,98191.53
2023-02-06T09:43:30.609Z,98193.31
2023-02-06T09:46:01.723Z,98200.19
2023-02-06T09:48:32.099Z,98195.28
2023-02-06T09:51:08.606Z,98188.56
2023-02-06T09:53:46.915Z,98198.16
2023-02-06T09:56:20.880Z,98192.78
2023-02-06T09:58:54.084Z,98181.16
2023-02-06T10:01:24.673Z,98174.38
2023-02-06T10:04:01.363Z,98166.63
2023-02-06T10:06:31.215Z,98162.34
2023-02-06T10:09:03.079Z,98154.81
2023-02-06T10:11:41.649Z,98152.47
2023-02-06T10:14:17.265Z,98149.09
2023-02-06T10:16:47.737Z,98146.44
2023-02-06T10:19:20.370Z,98144.56
2023-02-06T10:21:51.651Z,98132.78
2023-02-06T10:24:26.962Z,98127.81
2023-02-06T10:26:54.919Z,98130.03
2023-02-06T10:29:27.277Z,98128.13
2023-02-06T10:32:00.729Z,98122.94
2023-02-06T10:34:47.772Z,98113.00
2023-02-06T10:37:37.826Z,98110.09
2023-02-06T10:40:20.791Z,98108.47
2023-02-06T10:42:53.830Z,98110.94
2023-02-06T10:45:31.783Z,98104.47
2023-02-06T10:48:02.790Z,98098.63
2023-02-06T10:50:33.419Z,98086.19
2023-02-06T10:53:04.806Z,98094.78
2023-02-06T10:55:40.871Z,98092.28
2023-02-06T10:58:15.801Z,98093.22
2023-02-06T11:00:45.011Z,98098.22
2023-02-06T11:03:16.008Z,98085.63
2023-02-06T11:05:43.898Z,98087.28
2023-02-06T11:08:16.949Z,98085.13
2023-02-06T11:10:46.584Z,98081.03
2023-02-06T11:13:22.018Z,98084.56
2023-02-06T11:15:55.437Z,98090.53
2023-02-06T11:18:27.630Z,98080.53
2023-02-06T11:20:55.999Z,98083.25
2023-02-06T11:23:25.996Z,98089.78
2023-02-06T11:26:05.130Z,98088.50
2023-02-06T11:28:34.476Z,98087.16
2023-02-06T11:31:04.409Z,98070.75
2023-02-06T11:33:39.377Z,98076.63
2023-02-06T11:36:10.580Z,98075.22
2023-02-06T11:38:38.478Z,98068.28
2023-02-06T11:41:18.196Z,98063.19
2023-02-06T11:43:50.547Z,98063.22
2023-02-06T11:46:21.342Z,98059.09
2023-02-06T11:48:50.766Z,98059.78
2023-02-06T11:51:18.680Z,98059.00
2023-02-06T11:53:57.913Z,98055.59
2023-02-06T11:56:28.808Z,98054.84
2023-02-06T11:59:07.162Z,98053.09
2023-02-06T12:01:44.351Z,98049.78
2023-02-06T12:04:23.671Z,98056.44
2023-02-06T12:06:55.234Z,98051.38
2023-02-06T12:09:23.187Z,98051.59
2023-02-06T12:11:55.688Z,98048.44
2023-02-06T12:14:29.770Z,98051.81
2023-02-06T12:16:57.876Z,98045.97
2023-02-06T12:19:31.823Z,98037.69
2023-02-06T12:22:03.407Z,98047.81
2023-02-06T12:24:35.046Z,98035.97
2023-02-06T12:27:07.608Z,98036.25
2023-02-06T12:29:38.416Z,98027.06
2023-02-06T12:32:09.933Z,98028.72
2023-02-06T12:34:49.742Z,98025.41
2023-02-06T12:37:21.614Z,98026.19
2023-02-06T12:39:50.308Z,98019.50
2023-02-06T12:42:44.374Z,98021.31
2023-02-06T12:45:19.029Z,98013.81
2023-02-06T12:47:52.021Z,98007.97
2023-02-06T12:50:24.258Z,98003.00
2023-02-06T12:52:56.224Z,97996.28
2023-02-06T12:55:28.434Z,98000.50
2023-02-06T12:57:58.812Z,97989.59
2023-02-06T13:00:47.819Z,97992.88
2023-02-06T13:03:23.872Z,97985.25
2023-02-06T13:05:54.309Z,97984.38
2023-02-06T13:08:26.758Z,97982.84
2023-02-06T13:11:04.151Z,97977.69
2023-02-06T13:13:37.636Z,97978.66
2023-02-06T13:16:06.806Z,97973.69
2023-02-06T13:18:38.652Z,97976.19
2023-02-06T13:21:17.989Z,97979.53
2023-02-06T13:24:16.860Z,97974.50
2023-02-06T13:27:11.229Z,97976.19
2023-02-06T13:29:42.780Z,97968.63
2023-02-06T13:32:43.195Z,97971.19
2023-02-06T13:35:21.949Z,97967.78
2023-02-06T13:37:51.485Z,97971.13
2023-02-06T13:40:30.610Z,97972.81
2023-02-06T13:43:01.300Z,97979.53
2023-02-06T13:45:33.216Z,97973.66
2023-02-06T13:48:33.881Z,97982.06
2023-02-06T13:51:21.459Z,97973.66
2023-02-06T13:54:25.536Z,97968.59
2023-02-06T13:57:06.075Z,97969.38
2023-02-06T13:59:35.819Z,97972.84
2023-02-06T14:02:12.377Z,97967.78
2023-02-06T14:04:41.194Z,97972.81
2023-02-06T14:07:33.280Z,97973.66
2023-02-06T14:10:29.789Z,97970.31
2023-02-06T14:13:13.021Z,97973.63
2023-02-06T14:15:48.197Z,97980.28
2023-02-06T14:18:35.063Z,97981.13
2023-02-06T14:21:16.229Z,97973.53
2023-02-06T14:24:10.984Z,97979.38
2023-02-06T14:26:48.155Z,97984.38
2023-02-06T14:29:24.252Z,97990.22
2023-02-06T14:32:10.166Z,97987.69
2023-02-06T14:34:51.249Z,97980.97
2023-02-06T14:37:33.803Z,97977.84
2023-02-06T14:40:04.887Z,97980.38
2023-02-06T14:42:37.484Z,97981.19
2023-02-06T14:45:24.918Z,97973.56
2023-02-06T14:47:53.735Z,97976.09
2023-02-06T14:50:25.205Z,97975.34
2023-02-06T14:52:56.650Z,97978.72
2023-02-06T14:55:33.590Z,97975.31
2023-02-06T14:58:04.871Z,97971.91
2023-02-06T15:00:33.636Z,97976.97
2023-02-06T15:03:08.426Z,97973.63
2023-02-06T15:05:43.623Z,97973.66
2023-02-06T15:08:18.955Z,97976.97
2023-02-06T15:10:47.631Z,97990.28
2023-02-06T15:13:22.793Z,97995.25
2023-02-06T15:15:55.181Z,97996.81
2023-02-06T15:18:23.301Z,97994.22
2023-02-06T15:20:55.836Z,98000.94
2023-02-06T15:23:34.931Z,98000.81
2023-02-06T15:26:06.818Z,97997.44
2023-02-06T15:28:35.826Z,98002.44
2023-02-06T15:31:04.183Z,98001.63
2023-02-06T15:33:35.923Z,97987.34
2023-02-06T15:36:08.349Z,97998.22
2023-02-06T15:38:39.887Z,98010.53
2023-02-06T15:41:08.622Z,98013.84
2023-02-06T15:43:36.795Z,98022.16
2023-02-06T15:46:08.384Z,98027.03
2023-02-06T15:48:42.675Z,98019.47
2023-02-06T15:51:23.136Z,98016.81
2023-02-06T15:53:52.311Z,98027.63
2023-02-06T15:56:25.711Z,98028.28
2023-02-06T15:58:57.802Z,98029.94
2023-02-06T16:01:27.148Z,98038.25
2023-02-06T16:04:01.322Z,98042.28
2023-02-06T16:06:30.623Z,98049.72
2023-02-06T16:09:00.722Z,98052.94
2023-02-06T16:11:48.145Z,98046.16
2023-02-06T16:14:24.057Z,98048.53
2023-02-06T16:17:01.112Z,98049.41
2023-02-06T16:19:38.833Z,98055.03
2023-02-06T16:22:25.465Z,98062.44
2023-02-06T16:24:55.561Z,98068.28
2023-02-06T16:27:25.725Z,98075.88
2023-02-06T16:29:59.518Z,98079.38
2023-02-06T16:32:32.402Z,98087.47
2023-02-06T16:35:03.266Z,98095.66
2023-02-06T16:37:32.802Z,98087.75
2023-02-06T16:40:03.827Z,98093.28
2023-02-06T16:42:35.279Z,98094.88
2023-02-06T16:45:08.358Z,98100.91
2023-02-06T16:47:38.936Z,98101.16
2023-02-06T16:50:09.537Z,98109.50
2023-02-06T16:52:47.591Z,98129.97
2023-02-06T16:55:22.152Z,98132.00
2023-02-06T16:57:53.836Z,98136.13
2023-02-06T17:00:24.335Z,98130.03
2023-02-06T17:02:53.179Z,98130.78
2023-02-06T17:05:25.132Z,98149.34
2023-02-06T17:07:56.430Z,98153.88
2023-02-06T17:10:29.077Z,98152.00
2023-02-06T17:12:57.016Z,98163.41
2023-02-06T17:15:24.937Z,98160.84
2023-02-06T17:17:54.753Z,98159.00
2023-02-06T17:20:29.385Z,98161.22
2023-02-06T17:22:58.687Z,98165.28
2023-02-06T17:25:26.764Z,98159.28
2023-02-06T17:27:54.843Z,98155.63
2023-02-06T17:30:27.576Z,98169.81
2023-02-06T17:32:56.287Z,98174.19
2023-02-06T17:35:25.041Z,98177.25
2023-02-06T17:37:53.342Z,98181.09
2023-02-06T17:40:27.810Z,98170.63
2023-02-06T17:42:56.376Z,98175.41
2023-02-06T17:45:24.575Z,98176.88
2023-02-06T17:47:52.775Z,98173.47
2023-02-06T17:50:21.980Z,98173.13
2023-02-06T17:52:52.713Z,98176.31
2023-02-06T17:55:24.246Z,98180.69
2023-02-06T17:57:52.430Z,98183.66
2023-02-06T18:00:27.634Z,98177.94
2023-02-06T18:02:56.722Z,98196.63
2023-02-06T18:05:25.274Z,98198.50
2023-02-06T18:07:53.213Z,98205.00
2023-02-06T18:10:26.304Z,98202.44
2023-02-06T18:12:54.364Z,98205.69
2023-02-06T18:15:22.556Z,98211.47
2023-02-06T18:17:50.672Z,98197.28
2023-02-06T18:20:18.800Z,98198.72
2023-02-06T18:22:47.321Z,98205.44
2023-02-06T18:25:18.488Z,98210.06
2023-02-06T18:27:50.895Z,98205.31
2023-02-06T18:30:20.712Z,98209.97
2023-02-06T18:32:53.555Z,98204.97
2023-02-06T18:35:21.584Z,98208.44
2023-02-06T18:37:50.223Z,98219.66
2023-02-06T18:40:18.372Z,98214.22
2023-02-06T18:42:54.890Z,98224.13
2023-02-06T18:45:25.763Z,98227.09
2023-02-06T18:47:53.718Z,98229.31
2023-02-06T18:50:22.436Z,98225.59
2023-02-06T18:52:51.046Z,98231.72
2023-02-06T18:55:19.094Z,98243.78
2023-02-06T18:57:47.522Z,98245.66
2023-02-06T19:00:17.873Z,98239.81
2023-02-06T19:02:47.527Z,98246.28
2023-02-06T19:05:15.558Z,98239.59
2023-02-06T19:07:43.574Z,98243.66
2023-02-06T19:10:16.201Z,98241.84
2023-02-06T19:12:44.344Z,98229.97
2023-02-06T19:15:12.660Z,98233.44
2023-02-06T19:17:41.471Z,98237.22
2023-02-06T19:20:12.990Z,98241.25
2023-02-06T19:22:40.985Z,98238.69
2023-02-06T19:25:13.341Z,98236.84
2023-02-06T19:27:42.192Z,98243.88
2023-02-06T19:30:11.130Z,98247.22
2023-02-06T19:32:39.053Z,98253.66
2023-02-06T19:35:07.746Z,98255.16
2023-02-06T19:37:37.034Z,98251.56
2023-02-06T19:40:05.456Z,98259.25
2023-02-06T19:42:33.388Z,98258.41
2023-02-06T19:45:01.310Z,98257.72
2023-02-06T19:47:29.253Z,98267.31
2023-02-06T19:49:57.347Z,98267.97
2023-02-06T19:52:26.148Z,98269.28
2023-02-06T19:54:55.689Z,98270.59
2023-02-06T19:57:23.609Z,98262.09
2023-02-06T19:59:51.551Z,98265.44
2023-02-06T20:02:19.748Z,98272.25
2023-02-06T20:04:47.693Z,98270.91
2023-02-06T20:07:15.701Z,98276.94
2023-02-06T20:09:43.731Z,98284.59
2023-02-06T20:12:13.454Z,98283.22
2023-02-06T20:14:41.423Z,98280.78
2023-02-06T20:17:09.403Z,98276.72
2023-02-06T20:19:37.712Z,98264.09
2023-02-06T20:22:06.358Z,98271.13
2023-02-06T20:24:34.739Z,98272.19
2023-02-06T20:27:05.916Z,98271.41
2023-02-06T20:29:37.159Z,98271.00
2023-02-06T20:32:05.861Z,98269.28
2023-02-06T20:34:34.201Z,98260.09
2023-02-06T20:37:02.171Z,98254.34
2023-02-06T20:39:31.079Z,98256.06
2023-02-06T20:41:59.335Z,98256.13
2023-02-06T20:44:27.456Z,98252.75
2023-02-06T20:46:56.735Z,98255.78
2023-02-06T20:49:26.397Z,98264.19
2023-02-06T20:51:54.486Z,98256.09
2023-02-06T20:54:22.519Z,98254.72
2023-02-06T20:56:50.492Z,98256.09
2023-02-06T20:59:19.822Z,98259.84
2023-02-06T21:01:47.808Z,98255.81
2023-02-06T21:04:17.969Z,98269.34
2023-02-06T21:06:47.903Z,98271.47
2023-02-06T21:09:15.930Z,98272.00
2023-02-06T21:11:45.645Z,98275.66
2023-02-06T21:14:14.383Z,98276.56
2023-02-06T21:16:43.735Z,98280.28
2023-02-06T21:19:13.095Z,98277.13
2023-02-06T21:21:45.597Z,98281.97
2023-02-06T21:24:14.639Z,98277.91
2023-02-06T21:26:42.613Z,98283.03
2023-02-06T21:29:11.618Z,98282.88
2023-02-06T21:31:39.631Z,98277.44
2023-02-06T21:34:09.678Z,98268.72
2023-02-06T21:36:39.172Z,98283.09
2023-02-06T21:39:09.209Z,98284.59
2023-02-06T21:41:37.819Z,98285.09
2023-02-06T21:44:06.336Z,98279.59
2023-02-06T21:46:34.677Z,98284.47
2023-02-06T21:49:02.610Z,98284.00
2023-02-06T21:51:31.478Z,98279.03
2023-02-06T21:54:02.319Z,98276.19
2023-02-06T21:56:32.138Z,98289.31
2023-02-06T21:59:00.045Z,98295.97
2023-02-06T22:01:32.712Z,98292.00
2023-02-06T22:04:01.293Z,98298.97
2023-02-06T22:06:29.510Z,98297.97
2023-02-06T22:09:04.484Z,98301.78
2023-02-06T22:11:33.883Z,98296.84
2023-02-06T22:14:05.183Z,98297.22
2023-02-06T22:16:33.572Z,98315.00
2023-02-06T22:19:01.811Z,98317.59
2023-02-06T22:21:31.092Z,98318.28
2023-02-06T22:24:00.638Z,98328.50
2023-02-06T22:26:31.089Z,98333.94
2023-02-06T22:29:00.444Z,98336.56
2023-02-06T22:31:29.689Z,98341.84
2023-02-06T22:33:58.917Z,98349.94
2023-02-06T22:36:29.844Z,98349.53
2023-02-06T22:38:59.750Z,98353.22
2023-02-06T22:41:27.777Z,98356.22
2023-02-06T22:43:55.700Z,98363.41
2023-02-06T22:46:27.347Z,98372.63
2023-02-06T22:48:55.704Z,98370.63
2023-02-06T22:51:24.365Z,98367.63
2023-02-06T22:53:52.851Z,98359.84
2023-02-06T22:56:31.700Z,98368.91
2023-02-06T22:59:01.606Z,98371.00
2023-02-06T23:01:33.158Z,98375.31
2023-02-06T23:04:02.212Z,98374.00
2023-02-06T23:06:31.410Z,98379.75
2023-02-06T23:08:59.859Z,98375.31
2023-02-06T23:11:28.327Z,98380.66
2023-02-06T23:13:58.102Z,98390.44
2023-02-06T23:16:26.946Z,98390.25
2023-02-06T23:18:56.412Z,98398.38
2023-02-06T23:21:27.246Z,98402.28
2023-02-06T23:23:55.987Z,98403.00
2023-02-06T23:26:24.824Z,98393.03
2023-02-06T23:28:52.823Z,98396.69
2023-02-06T23:31:20.861Z,98394.22
2023-02-06T23:33:48.832Z,98399.16
2023-02-06T23:36:20.695Z,98395.03
2023-02-06T23:38:49.096Z,98400.25
2023-02-06T23:41:18.771Z,98400.72
2023-02-06T23:43:50.893Z,98405.78
2023-02-06T23:46:20.069Z,98399.78
2023-02-06T23:48:49.445Z,98415.69
2023-02-06T23:51:19.554Z,98415.50
2023-02-06T23:53:47.576Z,98419.91
2023-02-06T23:56:17.312Z,98413.25
2023-02-06T23:58:45.856Z,98411.22
